x

Cape San Martin - 55nm West Nw Of Morro Bay, Ca (46028) Wave Buoy

2:50pm - Sun 26th Feb 2017 All times are PST. -8 hours from GMT.

  • Sig Wave height 5.6ft
  • Swell Direction
  • Peak Period 17s
  • Average Period 9s
  • Wind
    9mph, 11mph gusts
  • Sea Temp 56°f
  • Air Temp 53°f
  • Sea Pressure 1014.6mb
  • Cape San Martin - 55nm West Nw Of Morro Bay, Ca
  • Cape San Martin - 55nm West Nw Of Morro Bay, Ca

More Historic Weather Station data

Upgrade to MSW Pro to gain access to the past 30 days of data for over 8000 Wavebouys and Weather Stations around the globe.

Join Pro

Comparision Forecast

View Surf forecast
   
Sun 02/26 2:50pm 5.5ft 17s 9s 9 11 mph 1014.6mb 56f 53f
1:50pm 5ft 17s 9s 9 13 mph 1015.2mb 56f 53f
12:50pm 6ft 14s 10s 9
mph
1015.7mb 56f 52f
11:50am 5ft 14s 9s 4 7 mph 1016mb 55f 52f
10:50am 5ft 19s 9s  -  2 mph 1016.1mb 55f 53f
9:50am 5.5ft 14s 9s 9 11 mph 1015mb 55f 51f
8:50am 5ft 14s 9s 7 9 mph 1016mb 55f 51f
7:50am 5ft 14s 8s 4 7 mph 1016.3mb 55f 51f
6:50am 5ft 14s 8s 2
mph
1015.7mb 55f 50f
5:50am 5ft 14s 8s 7 9 mph 1015.1mb 55f 50f
4:50am 4.5ft 14s 8s 7 9 mph 1014.5mb 55f 49f
3:50am 5ft 14s 8s 11 13 mph 1014.1mb 55f 49f
2:50am 5ft 14s 7s 16 18 mph 1014.2mb 55f 49f
1:50am 5ft 14s 7s 20 25 mph 1015.1mb 55f 48f
12:50am 5ft 14s 8s 16 20 mph 1015mb 55f 50f
Sat 02/25 11:50pm 5ft 15s 9s 18 22 mph 1014.2mb 55f 50f
10:50pm 5ft 15s 11s 18 20 mph 1014.9mb 55f 50f
9:50pm 5.5ft 14s 11s 13 16 mph 1016.2mb 55f 51f
8:50pm 5ft 15s 10s 9 11 mph 1016.5mb 55f 52f
7:50pm 5.5ft 15s 11s 4 7 mph 1017.2mb 55f 52f
6:50pm 5.5ft 15s 10s 4 7 mph 1017.1mb 55f 52f
5:50pm 5.5ft 14s 10s 7 9 mph 1017.7mb 55f 52f
4:50pm 6.5ft 15s 10s 9 13 mph 1018.1mb 55f 52f
3:50pm 6ft 14s 9s 9 11 mph 1018.1mb 55f 52f
2:50pm 6ft 15s 10s 7 9 mph 1018.1mb 55f 52f
1:50pm 6ft 15s 9s 4 7 mph 1018.6mb 55f 52f
12:50pm 6.5ft 15s 10s 4 9 mph 1019.6mb 55f 51f
11:50am 7ft 15s 10s 7 9 mph 1020.7mb 55f 51f
10:50am 6ft 15s 9s 9 13 mph 1021.4mb 55f 51f
9:50am 6ft 15s 8s 11 16 mph 1020.8mb 55f 51f
8:50am 6ft 15s 7s 13 18 mph 1021.1mb 55f 51f
7:50am 7ft 15s 8s 16 20 mph 1021.2mb 55f 51f
6:50am 6ft 15s 8s 18 20 mph 1021.1mb 55f 51f
5:50am 6ft 15s 7s 16 20 mph 1021.3mb 55f 52f
4:50am 6ft 16s 8s 16 18 mph 1020.8mb 55f 52f
3:50am 6.5ft 15s 8s 16 20 mph 1021mb 55f 51f
2:50am 6.5ft 16s 8s 16 18 mph 1021.5mb 55f 51f
1:50am 6.5ft 15s 7s 16 22 mph 1022.4mb 55f 52f
12:50am 6.5ft 16s 7s 13 18 mph 1022.8mb 55f 51f
Fri 02/24 11:50pm 7ft 16s 8s 16 20 mph 1023.1mb 55f 52f
10:50pm 6.5ft 16s 7s 16 20 mph 1023.4mb 55f 52f
9:50pm 6ft 16s 7s 18 20 mph 1023.4mb 55f 52f
8:50pm 6ft 10s 7s 18 22 mph 1023.2mb 55f 52f
7:50pm 6ft 16s 7s 18 20 mph 1023mb 55f 52f
6:50pm 5.5ft 10s 7s 18 20 mph 1022.9mb 55f 52f
5:50pm 6.5ft 16s 7s 16 20 mph 1023.1mb 55f 52f
4:50pm 6ft 9s 7s 16 22 mph 1023.5mb 55f 52f
3:50pm 6ft 9s 7s 16 20 mph 1023.6mb 55f 52f
2:50pm 6ft 9s 7s 18 20 mph 1023.8mb 55f 52f
1:50pm 6ft 8s 7s 16 18 mph 1024mb 55f 52f
12:50pm 6ft 8s 7s 16 20 mph 1024.3mb 55f 52f
11:50am 6ft 8s 7s 13 16 mph 1025.1mb 55f 52f
10:50am 6ft 8s 7s 13 18 mph 1025.2mb 55f 51f
9:50am 6ft 9s 6s 13 18 mph 1024.8mb 55f 51f
8:50am 6ft 8s 6s 16 18 mph 1024.6mb 55f 51f
7:50am 5.5ft 8s 6s 16 20 mph 1023.9mb 55f 51f
6:50am 6ft 8s 7s 16 20 mph 1023.6mb 55f 51f
5:50am 6ft 9s 7s 16 20 mph 1023mb 55f 51f
4:50am 7ft 8s 7s 16 18 mph 1023.1mb 55f 51f
3:50am 7ft 8s 7s 13 18 mph 1022.9mb 55f 51f
2:50am 7.5ft 8s 7s 16 22 mph 1022.9mb 55f 51f
1:50am 7ft 8s 7s 18 22 mph 1023.5mb 55f 52f
12:50am 7ft 8s 6s 18 22 mph 1023.7mb 55f 51f
Thu 02/23 11:50pm 8ft 9s 7s 18 20 mph 1023.9mb 55f 51f
10:50pm 7.5ft 8s 7s 18 22 mph 1023.4mb 55f 51f
9:50pm 7ft 8s 6s 20 25 mph 1023mb 55f 51f
8:50pm 8.5ft 8s 6s 20 25 mph 1022.9mb 55f 51f
7:50pm 8ft 9s 6s 22 27 mph 1022.5mb 55f 51f
6:50pm 8ft 8s 6s 22 29 mph 1022.3mb 55f 51f
5:50pm 8ft 8s 6s 25 29 mph 1022.1mb 55f 51f
4:50pm 8ft 9s 6s 25 29 mph 1022mb 55f 51f
3:50pm 8ft 8s 6s 22 27 mph 1022.2mb 55f 51f
2:50pm 8ft 8s 6s 22 29 mph 1022.4mb 55f 51f
1:50pm 8ft 8s 6s 22 29 mph 1022.6mb 55f 51f
12:50pm 8ft 8s 7s 20 25 mph 1023.1mb 55f 51f
11:50am 8ft 8s 7s 18 22 mph 1023.6mb 55f 50f
10:50am 7.5ft 8s 6s 18 22 mph 1024mb 55f 49f
9:50am 9ft 8s 7s 22 27 mph 1023.9mb 55f 50f
8:50am 8.5ft 9s 7s 18 22 mph 1023.6mb 55f 49f
7:50am 8ft 8s 7s 20 25 mph 1023.3mb 55f 49f
6:50am 9.5ft 8s 7s 29 40 mph 1022.5mb 55f 49f
5:50am 9.5ft 8s 7s 22 29 mph 1022.6mb 55f 49f
4:50am 9ft 11s 7s 25 31 mph 1022.2mb 55f 51f
3:50am 9ft 10s 7s 22 29 mph 1022.1mb 55f 52f
2:50am 9ft 7s 7s 25 29 mph 1022.4mb 55f 51f
1:50am 9.5ft 13s 7s 22 31 mph 1023mb 55f 51f
12:50am 9ft 14s 7s 22 29 mph 1023.2mb 55f 51f